createdAt,value
2022-12-01T00:03:59.173Z,6.20
2022-12-01T00:08:06.165Z,6.20
2022-12-01T00:12:12.871Z,6.20
2022-12-01T00:16:19.768Z,6.20
2022-12-01T00:20:26.646Z,6.20
2022-12-01T00:24:34.321Z,6.20
2022-12-01T00:28:40.962Z,6.10
2022-12-01T00:32:49.839Z,6.20
2022-12-01T00:36:56.523Z,6.20
2022-12-01T00:41:03.773Z,6.20
2022-12-01T00:45:10.950Z,6.20
2022-12-01T00:49:17.607Z,6.20
2022-12-01T00:53:24.700Z,6.20
2022-12-01T00:57:31.824Z,6.10
2022-12-01T01:01:38.579Z,6.10
2022-12-01T01:05:45.251Z,6.20
2022-12-01T01:09:51.894Z,6.20
2022-12-01T01:13:59.617Z,6.00
2022-12-01T01:18:07.114Z,6.00
2022-12-01T01:22:13.774Z,6.00
2022-12-01T01:26:23.619Z,6.00
2022-12-01T01:30:30.385Z,5.90
2022-12-01T01:34:37.050Z,6.00
2022-12-01T01:38:43.940Z,6.00
2022-12-01T01:42:50.605Z,6.00
2022-12-01T01:46:57.291Z,6.00
2022-12-01T01:51:04.720Z,6.10
2022-12-01T01:55:12.235Z,6.10
2022-12-01T01:59:24.162Z,6.20
2022-12-01T02:03:31.640Z,6.20
2022-12-01T02:07:40.198Z,6.20
2022-12-01T02:12:12.003Z,6.20
2022-12-01T02:16:35.919Z,6.20
2022-12-01T02:21:33.404Z,6.20
2022-12-01T02:26:05.800Z,6.20
2022-12-01T02:30:19.231Z,6.10
2022-12-01T02:34:32.090Z,6.10
2022-12-01T02:39:02.944Z,6.10
2022-12-01T02:43:25.937Z,6.10
2022-12-01T02:47:34.486Z,6.00
2022-12-01T02:51:44.718Z,6.00
2022-12-01T02:55:57.642Z,6.00
2022-12-01T03:00:04.930Z,6.00
2022-12-01T03:04:32.511Z,6.00
2022-12-01T03:09:08.741Z,5.90
2022-12-01T03:13:59.495Z,6.00
2022-12-01T03:18:31.890Z,6.00
2022-12-01T03:22:47.136Z,6.10
2022-12-01T03:27:00.210Z,6.00
2022-12-01T03:31:11.842Z,6.00
2022-12-01T03:35:31.358Z,5.20
2022-12-01T03:39:40.055Z,6.00
2022-12-01T03:44:14.863Z,6.00
2022-12-01T03:48:24.115Z,6.00
2022-12-01T03:52:48.070Z,5.90
2022-12-01T03:57:00.102Z,6.00
2022-12-01T04:01:08.376Z,6.00
2022-12-01T04:05:15.082Z,5.90
2022-12-01T04:09:21.730Z,6.00
2022-12-01T04:13:28.358Z,5.90
2022-12-01T04:17:35.261Z,5.90
2022-12-01T04:21:41.925Z,6.00
2022-12-01T04:25:48.568Z,5.90
2022-12-01T04:29:55.241Z,5.80
2022-12-01T04:34:01.934Z,5.80
2022-12-01T04:38:08.702Z,5.80
2022-12-01T04:42:15.349Z,5.80
2022-12-01T04:46:23.167Z,5.80
2022-12-01T04:50:31.047Z,5.80
2022-12-01T04:54:37.911Z,5.80
2022-12-01T04:58:44.603Z,5.80
2022-12-01T05:02:51.273Z,5.90
2022-12-01T05:06:57.958Z,5.80
2022-12-01T05:11:07.593Z,5.80
2022-12-01T05:15:14.682Z,5.80
2022-12-01T05:19:40.007Z,5.80
2022-12-01T05:23:46.759Z,5.80
2022-12-01T05:27:53.398Z,5.80
2022-12-01T05:32:00.308Z,5.80
2022-12-01T05:36:07.442Z,5.80
2022-12-01T05:40:14.219Z,5.70
2022-12-01T05:44:20.895Z,5.80
2022-12-01T05:48:27.773Z,5.80
2022-12-01T05:52:35.444Z,5.80
2022-12-01T05:56:42.277Z,5.70
2022-12-01T06:00:49.034Z,5.80
2022-12-01T06:04:55.683Z,5.70
2022-12-01T06:09:02.367Z,5.70
2022-12-01T06:13:09.036Z,5.70
2022-12-01T06:17:15.690Z,5.70
2022-12-01T06:21:22.328Z,5.60
2022-12-01T06:25:28.987Z,5.60
2022-12-01T06:29:41.794Z,5.70
2022-12-01T06:33:48.790Z,5.60
2022-12-01T06:37:55.498Z,5.60
2022-12-01T06:42:02.256Z,5.50
2022-12-01T06:46:09.092Z,5.60
2022-12-01T06:50:15.916Z,5.60
2022-12-01T06:54:22.644Z,5.60
2022-12-01T06:58:30.043Z,5.60
2022-12-01T07:02:37.020Z,5.70
2022-12-01T07:06:43.699Z,5.60
2022-12-01T07:11:05.121Z,5.70
2022-12-01T07:15:11.804Z,5.80
2022-12-01T07:19:18.508Z,5.80
2022-12-01T07:23:25.185Z,5.80
2022-12-01T07:27:32.386Z,5.80
2022-12-01T07:31:39.484Z,5.90
2022-12-01T07:35:46.155Z,5.90
2022-12-01T07:39:52.844Z,5.90
2022-12-01T07:43:59.630Z,5.90
2022-12-01T07:48:06.476Z,6.00
2022-12-01T07:52:13.154Z,6.00
2022-12-01T07:56:21.121Z,6.00
2022-12-01T08:00:27.861Z,5.90
2022-12-01T08:04:34.610Z,5.90
2022-12-01T08:08:42.230Z,6.00
2022-12-01T08:12:49.000Z,6.00
2022-12-01T08:16:55.671Z,6.00
2022-12-01T08:21:03.012Z,6.00
2022-12-01T08:25:10.061Z,6.00
2022-12-01T08:29:20.154Z,6.10
2022-12-01T08:33:29.201Z,6.10
2022-12-01T08:37:35.903Z,6.10
2022-12-01T08:41:42.680Z,6.20
2022-12-01T08:45:49.974Z,6.30
2022-12-01T08:49:56.621Z,6.20
2022-12-01T08:54:04.537Z,6.40
2022-12-01T08:58:11.311Z,6.40
2022-12-01T09:02:22.341Z,6.50
2022-12-01T09:06:29.114Z,6.50
2022-12-01T09:10:35.758Z,6.60
2022-12-01T09:14:48.026Z,6.60
2022-12-01T09:18:55.365Z,6.70
2022-12-01T09:23:02.008Z,6.60
2022-12-01T09:27:10.032Z,6.70
2022-12-01T09:31:18.471Z,6.70
2022-12-01T09:35:25.342Z,6.70
2022-12-01T09:39:32.053Z,6.70
2022-12-01T09:43:43.117Z,6.80
2022-12-01T09:47:50.117Z,6.90
2022-12-01T09:51:59.297Z,6.90
2022-12-01T09:56:11.615Z,7.90
2022-12-01T10:00:22.872Z,6.90
2022-12-01T10:04:36.602Z,6.90
2022-12-01T10:08:54.933Z,6.80
2022-12-01T10:13:01.765Z,6.90
2022-12-01T10:17:36.901Z,6.90
2022-12-01T10:21:52.543Z,6.90
2022-12-01T10:26:34.468Z,7.00
2022-12-01T10:30:49.845Z,7.00
2022-12-01T10:34:57.790Z,7.00
2022-12-01T10:39:07.128Z,7.00
2022-12-01T10:43:14.091Z,7.00
2022-12-01T10:47:23.792Z,7.10
2022-12-01T10:51:30.452Z,7.10
2022-12-01T10:55:43.488Z,7.10
2022-12-01T11:00:01.153Z,7.20
2022-12-01T11:04:45.248Z,7.30
2022-12-01T11:08:56.008Z,7.30
2022-12-01T11:13:30.299Z,7.40
2022-12-01T11:17:42.012Z,7.30
2022-12-01T11:21:50.993Z,7.30
2022-12-01T11:26:09.789Z,7.50
2022-12-01T11:30:31.056Z,7.50
2022-12-01T11:34:38.693Z,7.60
2022-12-01T11:38:45.436Z,7.70
2022-12-01T11:42:55.586Z,7.70
2022-12-01T11:47:24.366Z,7.80
2022-12-01T11:51:37.965Z,7.70
2022-12-01T11:55:44.684Z,7.80
2022-12-01T11:59:51.733Z,7.90
2022-12-01T12:04:19.805Z,8.00
2022-12-01T12:08:29.259Z,8.20
2022-12-01T12:13:11.265Z,8.30
2022-12-01T12:17:23.936Z,8.20
2022-12-01T12:22:16.530Z,8.00
2022-12-01T12:26:40.554Z,7.80
2022-12-01T12:31:14.635Z,7.60
2022-12-01T12:36:03.304Z,7.70
2022-12-01T12:40:37.041Z,7.70
2022-12-01T12:44:50.224Z,7.70
2022-12-01T12:53:34.907Z,7.70
2022-12-01T12:57:51.969Z,8.00
2022-12-01T13:02:32.747Z,8.00
2022-12-01T13:07:02.284Z,7.90
2022-12-01T13:11:26.827Z,7.90
2022-12-01T13:15:36.435Z,7.80
2022-12-01T13:19:46.024Z,7.80
2022-12-01T13:23:53.314Z,8.00
2022-12-01T13:28:03.341Z,8.00
2022-12-01T13:32:27.487Z,8.00
2022-12-01T13:36:49.940Z,7.80
2022-12-01T13:41:19.745Z,7.70
2022-12-01T13:45:31.907Z,7.60
2022-12-01T13:49:49.820Z,7.60
2022-12-01T13:54:06.069Z,7.70
2022-12-01T13:58:14.123Z,7.50
2022-12-01T14:02:21.946Z,7.50
2022-12-01T14:06:39.075Z,7.50
2022-12-01T14:11:17.326Z,7.50
2022-12-01T14:15:31.446Z,7.50
2022-12-01T14:19:52.179Z,7.50
2022-12-01T14:24:02.733Z,7.60
2022-12-01T14:28:19.103Z,7.50
2022-12-01T14:32:25.935Z,7.40
2022-12-01T14:36:43.273Z,7.30
2022-12-01T14:40:51.593Z,7.30
2022-12-01T14:44:58.878Z,7.30
2022-12-01T14:49:06.425Z,7.30
2022-12-01T14:53:30.644Z,7.20
2022-12-01T14:57:42.101Z,7.20
2022-12-01T15:01:51.766Z,7.10
2022-12-01T15:05:58.533Z,7.10
2022-12-01T15:10:06.396Z,7.10
2022-12-01T15:14:44.425Z,7.10
2022-12-01T15:18:52.079Z,7.00
2022-12-01T15:22:59.764Z,7.00
2022-12-01T15:27:26.216Z,7.00
2022-12-01T15:31:35.028Z,7.00
2022-12-01T15:35:42.521Z,7.00
2022-12-01T15:40:47.815Z,7.00
2022-12-01T15:44:37.582Z,6.90
2022-12-01T15:48:45.380Z,7.00
2022-12-01T15:52:52.117Z,6.80
2022-12-01T15:56:59.944Z,6.80
2022-12-01T16:01:17.957Z,6.80
2022-12-01T16:05:32.946Z,6.80
2022-12-01T16:09:42.510Z,6.80
2022-12-01T16:13:55.458Z,6.80
2022-12-01T16:18:30.748Z,6.70
2022-12-01T16:22:37.448Z,6.70
2022-12-01T16:27:18.515Z,6.70
2022-12-01T16:31:26.864Z,6.60
2022-12-01T16:35:34.095Z,6.60
2022-12-01T16:39:40.798Z,6.60
2022-12-01T16:44:05.749Z,6.60
2022-12-01T16:48:19.381Z,6.60
2022-12-01T16:56:52.828Z,6.70
2022-12-01T17:00:59.798Z,6.70
2022-12-01T17:05:06.825Z,6.70
2022-12-01T17:09:13.787Z,6.80
2022-12-01T17:13:23.385Z,6.90
2022-12-01T17:17:30.244Z,6.80
2022-12-01T17:21:36.919Z,6.90
2022-12-01T17:25:43.574Z,6.80
2022-12-01T17:29:50.240Z,6.80
2022-12-01T17:33:56.998Z,6.60
2022-12-01T17:38:03.674Z,6.60
2022-12-01T17:42:10.315Z,6.60
2022-12-01T17:46:17.179Z,6.50
2022-12-01T17:50:23.857Z,6.50
2022-12-01T17:54:31.040Z,6.50
2022-12-01T17:58:37.915Z,6.40
2022-12-01T18:02:44.653Z,6.40
2022-12-01T18:06:54.235Z,6.40
2022-12-01T18:11:03.247Z,6.40
2022-12-01T18:15:10.765Z,6.40
2022-12-01T18:19:17.465Z,6.30
2022-12-01T18:23:24.203Z,6.20
2022-12-01T18:27:30.842Z,6.30
2022-12-01T18:31:38.380Z,6.30
2022-12-01T18:35:45.186Z,6.30
2022-12-01T18:39:54.443Z,6.20
2022-12-01T18:44:01.752Z,6.20
2022-12-01T18:48:08.484Z,6.10
2022-12-01T18:52:15.203Z,6.20
2022-12-01T18:56:21.990Z,6.20
2022-12-01T19:00:28.954Z,6.10
2022-12-01T19:04:35.733Z,6.00
2022-12-01T19:08:42.880Z,6.00
2022-12-01T19:12:49.651Z,6.00
2022-12-01T19:16:56.839Z,5.90
2022-12-01T19:21:04.877Z,5.90
2022-12-01T19:25:13.310Z,6.00
2022-12-01T19:29:20.051Z,5.90
2022-12-01T19:33:29.728Z,5.90
2022-12-01T19:37:36.372Z,5.90
2022-12-01T19:41:43.078Z,5.90
2022-12-01T19:45:49.828Z,6.00
2022-12-01T19:49:56.500Z,5.90
2022-12-01T19:54:12.866Z,5.90
2022-12-01T19:58:19.571Z,5.80
2022-12-01T20:02:29.346Z,5.90
2022-12-01T20:06:37.814Z,5.90
2022-12-01T20:10:48.740Z,5.90
2022-12-01T20:14:56.216Z,5.80
2022-12-01T20:19:05.133Z,5.80
2022-12-01T20:23:11.808Z,5.80
2022-12-01T20:27:18.558Z,5.80
2022-12-01T20:31:26.794Z,5.80
2022-12-01T20:35:33.518Z,5.80
2022-12-01T20:39:41.407Z,5.70
2022-12-01T20:43:48.368Z,5.80
2022-12-01T20:47:55.040Z,5.70
2022-12-01T20:52:01.704Z,5.70
2022-12-01T20:56:11.232Z,5.70
2022-12-01T21:00:18.331Z,5.70
2022-12-01T21:04:25.043Z,5.70
2022-12-01T21:08:32.245Z,5.70
2022-12-01T21:12:58.811Z,5.70
2022-12-01T21:17:23.618Z,5.80
2022-12-01T21:21:41.347Z,5.70
2022-12-01T21:25:49.016Z,5.70
2022-12-01T21:29:55.881Z,5.60
2022-12-01T21:34:02.562Z,5.70
2022-12-01T21:38:16.508Z,5.70
2022-12-01T21:42:28.173Z,5.60
2022-12-01T21:46:35.258Z,5.60
2022-12-01T21:50:42.039Z,5.60
2022-12-01T21:54:49.711Z,5.60
2022-12-01T21:59:02.323Z,5.50
2022-12-01T22:03:08.962Z,5.50
2022-12-01T22:07:15.637Z,5.60
2022-12-01T22:11:26.984Z,5.50
2022-12-01T22:15:41.252Z,5.40
2022-12-01T22:19:57.523Z,5.40
2022-12-01T22:24:10.371Z,5.40
2022-12-01T22:28:23.412Z,5.40
2022-12-01T22:32:53.302Z,5.50
2022-12-01T22:36:59.994Z,5.60
2022-12-01T22:41:11.970Z,5.50
2022-12-01T22:45:26.710Z,5.20
2022-12-01T22:49:34.319Z,5.10
2022-12-01T22:53:42.464Z,5.10
2022-12-01T22:57:49.112Z,5.10
2022-12-01T23:01:58.418Z,5.00
2022-12-01T23:06:56.028Z,5.00
2022-12-01T23:11:06.349Z,5.00
2022-12-01T23:15:34.312Z,5.00
2022-12-01T23:19:41.085Z,5.00
2022-12-01T23:23:47.751Z,5.00
2022-12-01T23:27:59.190Z,4.90
2022-12-01T23:32:06.317Z,5.00
2022-12-01T23:36:22.730Z,5.00
2022-12-01T23:40:33.355Z,5.00
2022-12-01T23:44:45.232Z,5.10
2022-12-01T23:49:03.483Z,5.10
2022-12-01T23:53:28.166Z,5.20
2022-12-01T23:57:37.110Z,5.10
